createdAt,value
2022-10-17T00:00:10.362Z,990.26
2022-10-17T00:05:14.523Z,990.27
2022-10-17T00:10:18.657Z,990.26
2022-10-17T00:15:22.829Z,990.29
2022-10-17T00:20:26.982Z,990.06
2022-10-17T00:25:31.157Z,989.92
2022-10-17T00:30:35.318Z,989.94
2022-10-17T00:35:39.503Z,989.35
2022-10-17T00:40:43.696Z,989.21
2022-10-17T00:45:47.774Z,989.20
2022-10-17T00:50:51.988Z,989.10
2022-10-17T00:55:56.105Z,989.07
2022-10-17T01:01:00.354Z,988.82
2022-10-17T01:06:04.447Z,988.92
2022-10-17T01:11:08.596Z,988.78
2022-10-17T01:16:12.772Z,988.80
2022-10-17T01:21:16.916Z,988.82
2022-10-17T01:26:21.105Z,988.79
2022-10-17T01:31:25.259Z,988.74
2022-10-17T01:36:29.402Z,988.81
2022-10-17T01:41:33.539Z,988.80
2022-10-17T01:46:37.719Z,988.80
2022-10-17T01:51:41.904Z,988.73
2022-10-17T01:56:46.047Z,988.89
2022-10-17T02:01:50.226Z,988.87
2022-10-17T02:06:54.383Z,988.72
2022-10-17T02:11:58.532Z,988.65
2022-10-17T02:17:02.695Z,988.55
2022-10-17T02:22:06.873Z,988.43
2022-10-17T02:27:10.988Z,988.31
2022-10-17T02:32:15.162Z,988.37
2022-10-17T02:37:19.327Z,988.10
2022-10-17T02:42:23.486Z,988.03
2022-10-17T02:47:27.629Z,987.99
2022-10-17T02:52:32.130Z,988.19
2022-10-17T02:57:35.987Z,988.33
2022-10-17T03:02:40.135Z,988.61
2022-10-17T03:07:44.264Z,988.62
2022-10-17T03:12:48.472Z,988.44
2022-10-17T03:17:52.586Z,988.49
2022-10-17T03:22:56.772Z,988.56
2022-10-17T03:28:00.940Z,988.54
2022-10-17T03:33:05.092Z,988.87
2022-10-17T03:38:09.267Z,988.97
2022-10-17T03:43:13.381Z,989.00
2022-10-17T03:48:17.569Z,989.03
2022-10-17T03:53:21.739Z,989.21
2022-10-17T03:58:25.868Z,989.34
2022-10-17T04:03:30.035Z,989.59
2022-10-17T04:08:34.197Z,989.78
2022-10-17T04:13:38.374Z,989.86
2022-10-17T04:18:42.529Z,989.96
2022-10-17T04:23:46.706Z,990.17
2022-10-17T04:28:50.846Z,990.05
2022-10-17T04:33:55.009Z,990.05
2022-10-17T04:38:59.212Z,990.03
2022-10-17T04:44:03.329Z,990.04
2022-10-17T04:49:07.464Z,990.14
2022-10-17T04:54:11.677Z,989.97
2022-10-17T04:59:15.796Z,989.68
2022-10-17T05:04:22.460Z,989.84
2022-10-17T05:09:22.209Z,990.09
2022-10-17T05:14:26.362Z,990.14
2022-10-17T05:19:30.523Z,990.34
2022-10-17T05:24:34.705Z,990.40
2022-10-17T05:29:38.942Z,990.51
2022-10-17T05:34:43.043Z,990.62
2022-10-17T05:39:49.203Z,990.76
2022-10-17T05:44:49.497Z,990.87
2022-10-17T05:49:53.606Z,991.04
2022-10-17T05:54:57.785Z,991.05
2022-10-17T06:00:01.956Z,991.25
2022-10-17T06:05:06.107Z,991.28
2022-10-17T06:10:10.272Z,991.25
2022-10-17T06:15:14.438Z,991.33
2022-10-17T06:20:18.586Z,991.40
2022-10-17T06:25:22.748Z,991.61
2022-10-17T06:30:26.960Z,991.58
2022-10-17T06:35:31.062Z,991.86
2022-10-17T06:40:35.250Z,992.12
2022-10-17T06:45:39.369Z,992.35
2022-10-17T06:50:43.561Z,992.47
2022-10-17T06:55:47.708Z,992.79
2022-10-17T07:00:51.988Z,992.77
2022-10-17T07:05:56.010Z,992.86
2022-10-17T07:11:00.161Z,992.99
2022-10-17T07:16:04.354Z,992.99
2022-10-17T07:21:08.508Z,993.10
2022-10-17T07:26:12.657Z,993.14
2022-10-17T07:31:16.835Z,993.05
2022-10-17T07:36:20.990Z,993.00
2022-10-17T07:41:25.108Z,992.97
2022-10-17T07:46:29.281Z,992.99
2022-10-17T07:51:33.502Z,992.95
2022-10-17T07:56:37.605Z,992.99
2022-10-17T08:01:41.735Z,993.04
2022-10-17T08:06:45.949Z,993.00
2022-10-17T08:11:50.081Z,993.15
2022-10-17T08:16:54.277Z,993.07
2022-10-17T08:21:58.417Z,993.05
2022-10-17T08:27:02.561Z,993.10
2022-10-17T08:32:09.565Z,993.29
2022-10-17T08:42:15.071Z,993.21
2022-10-17T08:47:19.164Z,993.39
2022-10-17T08:52:23.368Z,993.20
2022-10-17T08:57:27.758Z,993.28
2022-10-17T09:02:31.764Z,993.05
2022-10-17T09:07:35.842Z,992.86
2022-10-17T09:12:39.997Z,992.89
2022-10-17T09:17:44.175Z,992.87
2022-10-17T09:22:48.360Z,992.87
2022-10-17T09:27:52.460Z,992.87
2022-10-17T09:32:56.620Z,992.90
2022-10-17T09:38:00.796Z,992.94
2022-10-17T09:43:04.937Z,993.18
2022-10-17T09:48:09.141Z,993.18
2022-10-17T09:53:13.263Z,993.19
2022-10-17T09:58:17.413Z,993.28
2022-10-17T10:03:21.608Z,993.28
2022-10-17T10:08:25.769Z,993.36
2022-10-17T10:13:29.892Z,993.39
2022-10-17T10:18:34.067Z,993.43
2022-10-17T10:23:38.243Z,993.57
2022-10-17T10:28:42.430Z,993.75
2022-10-17T10:33:49.567Z,993.83
2022-10-17T10:38:50.690Z,993.78
2022-10-17T10:43:54.848Z,993.92
2022-10-17T10:48:59.006Z,993.90
2022-10-17T10:54:03.249Z,993.98
2022-10-17T10:59:07.346Z,993.97
2022-10-17T11:04:11.514Z,994.04
2022-10-17T11:09:13.756Z,994.14
2022-10-17T11:14:17.912Z,994.37
2022-10-17T11:19:22.051Z,994.40
2022-10-17T11:24:26.230Z,994.50
2022-10-17T11:29:30.362Z,994.59
2022-10-17T11:34:34.527Z,994.51
2022-10-17T11:39:38.765Z,994.50
2022-10-17T11:44:42.867Z,994.50
2022-10-17T11:49:49.965Z,994.48
2022-10-17T11:54:51.173Z,994.34
2022-10-17T11:59:55.324Z,994.42
2022-10-17T12:04:59.536Z,994.48
2022-10-17T12:10:03.681Z,994.51
2022-10-17T12:15:07.811Z,994.57
2022-10-17T12:20:11.974Z,994.58
2022-10-17T12:25:16.191Z,994.64
2022-10-17T12:30:20.271Z,994.65
2022-10-17T12:35:24.437Z,994.65
2022-10-17T12:40:28.643Z,994.66
2022-10-17T12:45:32.767Z,994.78
2022-10-17T12:50:38.130Z,994.64
2022-10-17T12:55:41.078Z,994.80
2022-10-17T13:00:59.534Z,994.81
2022-10-17T13:05:49.418Z,994.72
2022-10-17T13:10:53.575Z,994.93
2022-10-17T13:15:57.726Z,995.00
2022-10-17T13:21:01.857Z,995.08
2022-10-17T13:26:06.143Z,995.28
2022-10-17T13:31:10.216Z,995.19
2022-10-17T13:36:14.359Z,995.24
2022-10-17T13:41:35.483Z,995.36
2022-10-17T13:46:36.836Z,995.46
2022-10-17T13:51:26.816Z,995.57
2022-10-17T13:56:31.043Z,995.71
2022-10-17T14:01:35.141Z,995.84
2022-10-17T14:06:39.318Z,995.84
2022-10-17T14:11:43.472Z,995.86
2022-10-17T14:16:47.614Z,995.91
2022-10-17T14:21:51.803Z,995.95
2022-10-17T14:26:55.948Z,995.87
2022-10-17T14:32:00.136Z,995.89
2022-10-17T14:37:04.257Z,996.01
2022-10-17T14:42:08.436Z,996.01
2022-10-17T14:47:41.654Z,996.17
2022-10-17T14:52:18.367Z,996.25
2022-10-17T14:57:20.898Z,996.35
2022-10-17T15:02:25.094Z,996.55
2022-10-17T15:07:29.232Z,996.67
2022-10-17T15:12:33.375Z,996.80
2022-10-17T15:17:37.600Z,996.85
2022-10-17T15:22:41.679Z,996.89
2022-10-17T15:27:45.846Z,997.05
2022-10-17T15:32:50.035Z,997.09
2022-10-17T15:37:54.190Z,997.04
2022-10-17T15:42:58.346Z,997.07
2022-10-17T15:48:02.498Z,997.17
2022-10-17T15:53:06.676Z,997.34
2022-10-17T15:58:10.811Z,997.49
2022-10-17T16:03:15.009Z,997.56
2022-10-17T16:08:19.162Z,997.77
2022-10-17T16:13:23.294Z,997.91
2022-10-17T16:18:27.585Z,997.94
2022-10-17T16:23:31.638Z,998.07
2022-10-17T16:33:39.920Z,998.36
2022-10-17T16:38:42.183Z,998.44
2022-10-17T16:43:46.336Z,998.46
2022-10-17T16:48:50.504Z,998.43
2022-10-17T16:53:54.660Z,998.43
2022-10-17T16:58:58.860Z,998.35
2022-10-17T17:04:03.038Z,998.34
2022-10-17T17:09:07.134Z,998.29
2022-10-17T17:14:11.294Z,998.07
2022-10-17T17:19:15.455Z,997.92
2022-10-17T17:24:19.630Z,997.90
2022-10-17T17:29:23.759Z,997.95
2022-10-17T17:34:27.974Z,998.04
2022-10-17T17:39:32.100Z,998.13
2022-10-17T17:44:36.236Z,997.97
2022-10-17T17:49:40.437Z,998.06
2022-10-17T17:54:44.595Z,997.91
2022-10-17T17:59:48.727Z,997.81
2022-10-17T18:04:52.915Z,997.82
2022-10-17T18:09:57.121Z,997.94
2022-10-17T18:15:01.218Z,998.05
2022-10-17T18:20:05.357Z,998.02
2022-10-17T18:25:09.541Z,998.03
2022-10-17T18:30:13.716Z,998.05
2022-10-17T18:35:17.874Z,997.99
2022-10-17T18:40:22.020Z,997.98
2022-10-17T18:45:26.196Z,998.09
2022-10-17T18:50:30.373Z,998.25
2022-10-17T18:55:34.554Z,998.24
2022-10-17T19:00:38.647Z,998.35
2022-10-17T19:05:42.839Z,998.22
2022-10-17T19:10:46.972Z,998.30
2022-10-17T19:15:51.151Z,998.35
2022-10-17T19:20:55.312Z,998.39
2022-10-17T19:26:00.422Z,998.45
2022-10-17T19:31:03.606Z,998.46
2022-10-17T19:36:07.765Z,998.45
2022-10-17T19:41:11.935Z,998.46
2022-10-17T19:46:16.121Z,998.55
2022-10-17T19:51:20.289Z,998.69
2022-10-17T19:56:24.435Z,998.65
2022-10-17T20:01:28.691Z,998.69
2022-10-17T20:06:32.725Z,998.82
2022-10-17T20:11:36.920Z,998.79
2022-10-17T20:16:41.067Z,998.93
2022-10-17T20:21:45.192Z,999.00
2022-10-17T20:26:49.395Z,999.05
2022-10-17T20:31:53.528Z,999.05
2022-10-17T20:36:57.683Z,999.04
2022-10-17T20:42:01.871Z,999.13
2022-10-17T20:47:11.974Z,999.19
2022-10-17T20:52:10.161Z,999.13
2022-10-17T20:57:14.329Z,999.38
2022-10-17T21:02:18.493Z,999.41
2022-10-17T21:07:22.641Z,999.55
2022-10-17T21:12:36.681Z,999.59
2022-10-17T21:17:30.965Z,999.59
2022-10-17T21:22:35.109Z,999.66
2022-10-17T21:27:39.318Z,999.70
2022-10-17T21:32:51.826Z,999.73
2022-10-17T21:37:47.602Z,999.81
2022-10-17T21:42:51.787Z,999.76
2022-10-17T21:48:12.201Z,999.80
2022-10-17T21:53:00.089Z,999.85
2022-10-17T21:58:04.229Z,1000.00
2022-10-17T22:03:08.423Z,1000.18
2022-10-17T22:08:10.641Z,1000.28
2022-10-17T22:13:14.869Z,1000.34
2022-10-17T22:18:18.990Z,1000.35
2022-10-17T22:23:23.160Z,1000.34
2022-10-17T22:28:27.327Z,1000.25
2022-10-17T22:33:31.461Z,1000.41
2022-10-17T22:38:33.733Z,1000.42
2022-10-17T22:43:37.875Z,1000.37
2022-10-17T22:48:42.059Z,1000.37
2022-10-17T22:53:46.191Z,1000.30
2022-10-17T22:58:50.374Z,1000.31
2022-10-17T23:03:54.555Z,1000.23
2022-10-17T23:08:58.712Z,1000.25
2022-10-17T23:14:02.874Z,1000.37
2022-10-17T23:19:07.007Z,1000.27
2022-10-17T23:24:11.202Z,1000.24
2022-10-17T23:29:15.349Z,1000.23
2022-10-17T23:34:19.511Z,1000.26
2022-10-17T23:39:23.633Z,1000.29
2022-10-17T23:44:27.861Z,1000.26
2022-10-17T23:49:31.991Z,1000.31
2022-10-17T23:54:36.192Z,1000.05
2022-10-17T23:59:40.296Z,1000.17
